createdAt,value
2017-09-16T00:00:18.890Z,0
2017-09-16T00:01:21.192Z,0
2017-09-16T00:02:23.601Z,0
2017-09-16T00:03:26.650Z,0
2017-09-16T00:04:29.145Z,0
2017-09-16T00:05:31.397Z,0
2017-09-16T00:06:33.766Z,0
2017-09-16T00:07:36.209Z,0
2017-09-16T00:08:38.562Z,0
2017-09-16T00:09:41.619Z,0
2017-09-16T00:10:44.222Z,0
2017-09-16T00:11:53.026Z,0
2017-09-16T00:12:55.389Z,0
2017-09-16T00:13:57.712Z,0
2017-09-16T00:15:00.116Z,0
2017-09-16T00:16:03.082Z,0
2017-09-16T00:17:05.344Z,0
2017-09-16T00:18:07.720Z,0
2017-09-16T00:19:10.081Z,0
2017-09-16T00:20:15.154Z,0
2017-09-16T00:21:17.487Z,0
2017-09-16T00:22:26.610Z,0
2017-09-16T00:23:29.610Z,0
2017-09-16T00:24:32.755Z,0
2017-09-16T00:25:35.324Z,0
2017-09-16T00:26:37.699Z,0
2017-09-16T00:27:39.992Z,0
2017-09-16T00:28:42.334Z,0
2017-09-16T00:29:45.695Z,0
2017-09-16T00:30:48.041Z,0
2017-09-16T00:31:50.409Z,0
2017-09-16T00:32:52.806Z,0
2017-09-16T00:33:55.043Z,0
2017-09-16T00:34:57.424Z,0
2017-09-16T00:35:59.812Z,0
2017-09-16T00:37:02.694Z,0
2017-09-16T00:38:05.071Z,0
2017-09-16T00:39:08.184Z,0
2017-09-16T00:40:10.490Z,0
2017-09-16T00:41:12.789Z,0
2017-09-16T00:42:15.162Z,0
2017-09-16T00:43:17.528Z,0
2017-09-16T00:44:19.836Z,0
2017-09-16T00:45:22.638Z,0
2017-09-16T00:46:24.939Z,0
2017-09-16T00:47:27.271Z,0
2017-09-16T00:48:29.514Z,0
2017-09-16T00:49:31.970Z,0
2017-09-16T00:50:34.161Z,0
2017-09-16T00:51:36.326Z,0
2017-09-16T00:52:41.783Z,0
2017-09-16T00:53:44.050Z,0
2017-09-16T00:54:46.317Z,0
2017-09-16T00:55:48.551Z,0
2017-09-16T00:56:50.807Z,0
2017-09-16T00:57:53.713Z,0
2017-09-16T00:58:56.084Z,0
2017-09-16T00:59:59.199Z,0
2017-09-16T01:01:01.561Z,0
2017-09-16T01:02:04.512Z,0
2017-09-16T01:03:06.866Z,0
2017-09-16T01:04:09.242Z,0
2017-09-16T01:05:12.188Z,0
2017-09-16T01:06:15.118Z,0
2017-09-16T01:07:18.189Z,0
2017-09-16T01:08:20.541Z,0
2017-09-16T01:09:22.950Z,0
2017-09-16T01:10:26.048Z,0
2017-09-16T01:11:28.328Z,0
2017-09-16T01:12:33.662Z,0
2017-09-16T01:13:36.601Z,0
2017-09-16T01:14:38.814Z,0
2017-09-16T01:15:41.016Z,0
2017-09-16T01:16:43.199Z,0
2017-09-16T01:17:45.355Z,0
2017-09-16T01:18:47.555Z,0
2017-09-16T01:19:49.859Z,0
2017-09-16T01:20:52.020Z,0
2017-09-16T01:21:54.172Z,0
2017-09-16T01:22:56.330Z,0
2017-09-16T01:23:58.513Z,0
2017-09-16T01:25:00.772Z,0
2017-09-16T01:26:03.533Z,0
2017-09-16T01:27:05.648Z,0
2017-09-16T01:28:07.941Z,0
2017-09-16T01:29:10.048Z,0
2017-09-16T01:30:12.304Z,0
2017-09-16T01:31:14.315Z,0
2017-09-16T01:32:16.494Z,0
2017-09-16T01:33:18.585Z,0
2017-09-16T01:34:20.703Z,0
2017-09-16T01:35:22.870Z,0
2017-09-16T01:36:24.977Z,0
2017-09-16T01:37:27.106Z,0
2017-09-16T01:38:29.300Z,0
2017-09-16T01:39:31.463Z,0
2017-09-16T01:40:33.660Z,0
2017-09-16T01:41:36.411Z,0
2017-09-16T01:42:38.505Z,0
2017-09-16T01:43:41.634Z,0
2017-09-16T01:44:43.714Z,0
2017-09-16T01:45:45.835Z,0
2017-09-16T01:46:47.913Z,0
2017-09-16T01:47:50.078Z,0
2017-09-16T01:48:52.185Z,0
2017-09-16T01:49:54.275Z,0
2017-09-16T01:50:56.271Z,0
2017-09-16T01:51:58.931Z,0
2017-09-16T01:53:01.029Z,0
2017-09-16T01:54:03.038Z,0
2017-09-16T01:55:05.133Z,0
2017-09-16T01:56:07.985Z,0
2017-09-16T01:57:09.947Z,0
2017-09-16T01:58:12.007Z,0
2017-09-16T01:59:14.813Z,0
2017-09-16T02:00:16.887Z,0
2017-09-16T02:01:19.025Z,0
2017-09-16T02:02:21.118Z,0
2017-09-16T02:03:23.950Z,0
2017-09-16T02:04:25.950Z,0
2017-09-16T02:05:27.926Z,0
2017-09-16T02:06:29.917Z,0
2017-09-16T02:07:31.990Z,0
2017-09-16T02:08:34.061Z,0
2017-09-16T02:09:36.160Z,0
2017-09-16T02:10:38.186Z,0
2017-09-16T02:11:40.165Z,0
2017-09-16T02:12:44.967Z,0
2017-09-16T02:13:46.953Z,0
2017-09-16T02:14:48.969Z,0
2017-09-16T02:15:50.887Z,0
2017-09-16T02:16:52.840Z,0
2017-09-16T02:17:54.738Z,0
2017-09-16T02:18:56.793Z,0
2017-09-16T02:19:58.753Z,0
2017-09-16T02:21:00.760Z,0
2017-09-16T02:22:03.435Z,0
2017-09-16T02:23:06.315Z,0
2017-09-16T02:24:08.915Z,0
2017-09-16T02:25:10.859Z,0
2017-09-16T02:26:12.911Z,0
2017-09-16T02:27:14.904Z,0
2017-09-16T02:28:17.908Z,0
2017-09-16T02:29:20.969Z,0
2017-09-16T02:30:23.018Z,0
2017-09-16T02:31:25.046Z,0
2017-09-16T02:32:27.109Z,0
2017-09-16T02:33:29.077Z,0
2017-09-16T02:34:31.817Z,0
2017-09-16T02:35:33.836Z,0
2017-09-16T02:36:35.793Z,0
2017-09-16T02:37:37.754Z,0
2017-09-16T02:38:39.778Z,0
2017-09-16T02:39:41.990Z,0
2017-09-16T02:40:43.999Z,0
2017-09-16T02:41:46.047Z,0
2017-09-16T02:42:48.968Z,0
2017-09-16T02:43:51.043Z,0
2017-09-16T02:44:53.164Z,0
2017-09-16T02:45:55.149Z,0
2017-09-16T02:46:57.301Z,0
2017-09-16T02:47:59.381Z,0
2017-09-16T02:49:02.431Z,0
2017-09-16T02:50:04.391Z,0
2017-09-16T02:51:07.490Z,0
2017-09-16T02:52:12.404Z,0
2017-09-16T02:53:14.483Z,0
2017-09-16T02:54:16.535Z,0
2017-09-16T02:55:19.531Z,0
2017-09-16T02:56:22.435Z,0
2017-09-16T02:57:24.464Z,0
2017-09-16T02:58:26.527Z,0
2017-09-16T02:59:28.589Z,0
2017-09-16T03:00:30.660Z,0
2017-09-16T03:01:32.781Z,0
2017-09-16T03:02:34.845Z,0
2017-09-16T03:03:36.986Z,0
2017-09-16T03:04:39.931Z,0
2017-09-16T03:05:42.015Z,0
2017-09-16T03:06:44.054Z,0
2017-09-16T03:07:46.099Z,0
2017-09-16T03:08:48.171Z,0
2017-09-16T03:09:49.913Z,0
2017-09-16T03:10:52.573Z,0
2017-09-16T03:11:54.264Z,0
2017-09-16T03:12:55.955Z,0
2017-09-16T03:13:57.651Z,0
2017-09-16T03:14:59.344Z,0
2017-09-16T03:16:01.054Z,0
2017-09-16T03:17:05.592Z,0
2017-09-16T03:18:07.282Z,0
2017-09-16T03:19:08.989Z,0
2017-09-16T03:20:10.678Z,0
2017-09-16T03:21:13.069Z,0
2017-09-16T03:22:14.794Z,0
2017-09-16T03:23:17.115Z,0
2017-09-16T03:24:18.788Z,0
2017-09-16T03:25:20.494Z,0
2017-09-16T03:26:22.176Z,0
2017-09-16T03:27:23.840Z,0
2017-09-16T03:28:25.546Z,0
2017-09-16T03:29:28.088Z,0
2017-09-16T03:30:29.793Z,0
2017-09-16T03:31:31.472Z,0
2017-09-16T03:32:33.180Z,0
2017-09-16T03:33:34.877Z,0
2017-09-16T03:34:36.574Z,0
2017-09-16T03:35:41.082Z,0
2017-09-16T03:36:42.793Z,0
2017-09-16T03:37:45.104Z,0
2017-09-16T03:38:46.781Z,0
2017-09-16T03:39:51.092Z,0
2017-09-16T03:40:52.777Z,0
2017-09-16T03:41:55.114Z,0
2017-09-16T03:42:57.564Z,0
2017-09-16T03:43:59.255Z,0
2017-09-16T03:45:00.921Z,0
2017-09-16T03:46:03.580Z,0
2017-09-16T03:47:05.252Z,0
2017-09-16T03:48:06.950Z,0
2017-09-16T03:49:15.615Z,0
2017-09-16T03:50:17.316Z,0
2017-09-16T03:51:18.989Z,0
2017-09-16T03:52:23.583Z,0
2017-09-16T03:53:25.298Z,0
2017-09-16T03:54:27.005Z,0
2017-09-16T03:55:28.726Z,0
2017-09-16T03:56:30.427Z,0
2017-09-16T03:57:32.098Z,0
2017-09-16T03:58:33.765Z,0
2017-09-16T03:59:35.449Z,0
2017-09-16T04:00:37.105Z,0
2017-09-16T04:01:41.571Z,0
2017-09-16T04:02:43.254Z,0
2017-09-16T04:03:44.967Z,0
2017-09-16T04:04:47.589Z,0
2017-09-16T04:05:49.302Z,0
2017-09-16T04:06:51.005Z,0
2017-09-16T04:07:52.727Z,0
2017-09-16T04:08:54.418Z,0
2017-09-16T04:09:57.113Z,0
2017-09-16T04:10:58.776Z,0
2017-09-16T04:12:00.450Z,0
2017-09-16T04:13:02.128Z,0
2017-09-16T04:14:03.803Z,0
2017-09-16T04:15:05.484Z,0
2017-09-16T04:16:07.180Z,0
2017-09-16T04:17:08.876Z,0
2017-09-16T04:18:10.542Z,0
2017-09-16T04:19:12.234Z,0
2017-09-16T04:20:13.873Z,0
2017-09-16T04:21:16.071Z,0
2017-09-16T04:22:17.720Z,0
2017-09-16T04:23:19.358Z,0
2017-09-16T04:24:21.570Z,0
2017-09-16T04:25:23.215Z,0
2017-09-16T04:26:24.847Z,0
2017-09-16T04:27:27.047Z,0
2017-09-16T04:28:28.720Z,0
2017-09-16T04:29:31.046Z,0
2017-09-16T04:30:32.709Z,0
2017-09-16T04:31:35.039Z,0
2017-09-16T04:32:37.541Z,0
2017-09-16T04:33:39.177Z,0
2017-09-16T04:34:40.814Z,0
2017-09-16T04:35:42.443Z,0
2017-09-16T04:36:44.069Z,0
2017-09-16T04:37:46.543Z,0
2017-09-16T04:38:48.179Z,0
2017-09-16T04:39:49.818Z,0
2017-09-16T04:40:51.445Z,0
2017-09-16T04:41:54.041Z,0
2017-09-16T04:42:55.675Z,0
2017-09-16T04:43:57.307Z,4
2017-09-16T04:44:58.937Z,4
2017-09-16T04:46:01.540Z,0
2017-09-16T04:47:04.039Z,4
2017-09-16T04:48:05.668Z,4
2017-09-16T04:49:07.307Z,4
2017-09-16T04:50:11.547Z,8
2017-09-16T04:51:13.168Z,8
2017-09-16T04:52:15.543Z,8
2017-09-16T04:53:17.175Z,12
2017-09-16T04:54:18.812Z,12
2017-09-16T04:55:20.444Z,16
2017-09-16T04:56:22.075Z,16
2017-09-16T04:57:23.712Z,20
2017-09-16T04:58:25.344Z,24
2017-09-16T04:59:26.975Z,24
2017-09-16T05:00:28.605Z,28
2017-09-16T05:01:30.241Z,32
2017-09-16T05:02:31.869Z,36
2017-09-16T05:03:33.501Z,44
2017-09-16T05:04:35.132Z,44
2017-09-16T05:05:36.763Z,52
2017-09-16T05:06:38.392Z,60
2017-09-16T05:07:40.021Z,68
2017-09-16T05:08:44.548Z,76
2017-09-16T05:09:46.195Z,88
2017-09-16T05:10:47.857Z,100
2017-09-16T05:11:49.489Z,108
2017-09-16T05:12:54.052Z,120
2017-09-16T05:13:55.687Z,132
2017-09-16T05:14:57.322Z,144
2017-09-16T05:15:58.964Z,156
2017-09-16T05:17:00.606Z,172
2017-09-16T05:18:02.248Z,184
2017-09-16T05:19:10.556Z,200
2017-09-16T05:20:12.176Z,212
2017-09-16T05:21:13.816Z,224
2017-09-16T05:22:16.053Z,236
2017-09-16T05:23:17.736Z,252
2017-09-16T05:24:19.376Z,256
2017-09-16T05:25:21.012Z,256
2017-09-16T05:26:22.650Z,268
2017-09-16T05:27:24.291Z,288
2017-09-16T05:28:25.925Z,304
2017-09-16T05:29:30.077Z,304
2017-09-16T05:30:31.715Z,304
2017-09-16T05:31:33.350Z,312
2017-09-16T05:32:49.560Z,340
2017-09-16T05:33:52.058Z,380
2017-09-16T05:34:53.689Z,404
2017-09-16T05:35:55.322Z,436
2017-09-16T05:36:56.952Z,460
2017-09-16T05:37:58.592Z,480
2017-09-16T05:39:00.225Z,508
2017-09-16T05:40:01.853Z,528
2017-09-16T05:41:03.493Z,556
2017-09-16T05:42:05.119Z,580
2017-09-16T05:43:06.755Z,604
2017-09-16T05:44:08.393Z,616
2017-09-16T05:45:10.024Z,648
2017-09-16T05:46:12.564Z,716
2017-09-16T05:47:14.198Z,756
2017-09-16T05:48:15.828Z,756
2017-09-16T05:49:17.472Z,852
2017-09-16T05:50:19.106Z,876
2017-09-16T05:51:20.736Z,948
2017-09-16T05:52:22.370Z,992
2017-09-16T05:53:24.044Z,976
2017-09-16T05:54:25.682Z,1096
2017-09-16T05:55:27.312Z,1160
2017-09-16T05:56:28.944Z,1196
2017-09-16T05:57:30.580Z,1196
2017-09-16T05:59:33.921Z,1300
2017-09-16T06:00:35.605Z,1380
2017-09-16T06:01:37.336Z,1360
2017-09-16T06:02:39.051Z,1360
2017-09-16T06:03:42.615Z,1368
2017-09-16T06:04:44.264Z,1364
2017-09-16T06:05:45.944Z,1380
2017-09-16T06:06:47.691Z,1432
2017-09-16T06:07:49.415Z,1500
2017-09-16T06:08:51.173Z,1532
2017-09-16T06:09:52.890Z,1552
2017-09-16T06:10:54.596Z,1560
2017-09-16T06:11:56.265Z,1572
2017-09-16T06:12:57.984Z,1628
2017-09-16T06:13:59.717Z,1800
2017-09-16T06:15:01.406Z,1968
2017-09-16T06:16:03.106Z,2120
2017-09-16T06:17:04.838Z,2296
2017-09-16T06:18:06.538Z,2424
2017-09-16T06:19:09.171Z,2508
2017-09-16T06:20:10.889Z,2572
2017-09-16T06:21:12.575Z,2640
2017-09-16T06:22:14.277Z,2672
2017-09-16T06:23:15.956Z,2708
2017-09-16T06:24:17.649Z,2720
2017-09-16T06:25:19.460Z,2760
2017-09-16T06:26:21.168Z,2808
2017-09-16T06:27:22.869Z,2840
2017-09-16T06:28:24.538Z,2924
2017-09-16T06:29:26.280Z,2948
2017-09-16T06:30:27.985Z,2952
2017-09-16T06:31:29.690Z,3008
2017-09-16T06:32:31.392Z,3152
2017-09-16T06:33:33.073Z,3296
2017-09-16T06:34:34.767Z,3376
2017-09-16T06:35:36.451Z,3476
2017-09-16T06:36:38.096Z,3592
2017-09-16T06:37:39.865Z,3660
2017-09-16T06:38:41.589Z,3644
2017-09-16T06:39:44.153Z,3552
2017-09-16T06:40:45.828Z,3540
2017-09-16T06:41:48.129Z,3676
2017-09-16T06:42:49.842Z,3668
2017-09-16T06:43:51.646Z,3856
2017-09-16T06:44:53.304Z,3860
2017-09-16T06:45:57.652Z,3916
2017-09-16T06:46:59.331Z,3960
2017-09-16T06:48:01.044Z,4008
2017-09-16T06:49:02.775Z,4140
2017-09-16T06:50:07.206Z,4164
2017-09-16T06:51:08.921Z,4168
2017-09-16T06:52:10.573Z,4132
2017-09-16T06:53:12.260Z,4232
2017-09-16T06:54:13.951Z,4304
2017-09-16T06:55:15.615Z,4340
2017-09-16T06:56:17.458Z,4396
2017-09-16T06:57:19.145Z,4500
2017-09-16T06:58:20.844Z,4604
2017-09-16T06:59:22.544Z,4648
2017-09-16T07:00:24.324Z,4740
2017-09-16T07:01:26.014Z,4920
2017-09-16T07:02:27.743Z,4976
2017-09-16T07:03:29.529Z,5120
2017-09-16T07:04:31.304Z,5288
2017-09-16T07:05:33.693Z,5408
2017-09-16T07:06:36.194Z,5696
2017-09-16T07:07:38.286Z,6064
2017-09-16T07:08:40.354Z,5548
2017-09-16T07:09:43.525Z,5412
2017-09-16T07:10:45.557Z,4648
2017-09-16T07:11:47.697Z,5952
2017-09-16T07:12:50.039Z,5772
2017-09-16T07:13:52.514Z,6104
2017-09-16T07:14:54.545Z,5884
2017-09-16T07:15:56.783Z,5492
2017-09-16T07:16:59.281Z,6392
2017-09-16T07:18:01.511Z,6644
2017-09-16T07:19:04.874Z,6764
2017-09-16T07:20:07.015Z,6896
2017-09-16T07:21:09.759Z,6936
2017-09-16T07:22:12.154Z,6932
2017-09-16T07:23:14.654Z,7560
2017-09-16T07:24:17.534Z,7792
2017-09-16T07:25:19.314Z,7688
2017-09-16T07:26:21.667Z,6592
2017-09-16T07:27:27.035Z,9268
2017-09-16T07:28:29.300Z,17632
2017-09-16T07:29:32.325Z,25376
2017-09-16T07:30:37.001Z,26880
2017-09-16T07:31:40.215Z,30976
2017-09-16T07:32:44.413Z,31872
2017-09-16T07:33:48.611Z,29664
2017-09-16T07:34:52.981Z,30272
2017-09-16T07:35:56.519Z,33184
2017-09-16T07:36:59.923Z,32544
2017-09-16T07:38:03.573Z,32416
2017-09-16T07:40:16.313Z,35232
2017-09-16T07:41:20.453Z,34272
2017-09-16T07:42:25.992Z,33376
2017-09-16T07:43:28.691Z,33088
2017-09-16T07:44:37.758Z,33728
2017-09-16T07:45:44.338Z,34848
2017-09-16T07:46:52.472Z,36480
2017-09-16T07:47:59.083Z,38368
2017-09-16T07:49:08.271Z,37056
2017-09-16T07:50:14.210Z,37568
2017-09-16T07:51:19.732Z,39872
2017-09-16T07:52:26.896Z,38368
2017-09-16T07:53:37.007Z,37536
2017-09-16T07:54:46.260Z,40832
2017-09-16T07:55:50.972Z,42048
2017-09-16T07:56:57.187Z,44160
2017-09-16T07:59:10.475Z,43424
2017-09-16T08:00:14.391Z,47328
2017-09-16T08:01:17.877Z,44864
2017-09-16T08:02:20.233Z,41472
2017-09-16T08:03:22.548Z,39552
2017-09-16T08:04:25.933Z,44032
2017-09-16T08:05:30.456Z,46176
2017-09-16T08:07:45.175Z,41408
2017-09-16T08:09:59.265Z,40000
2017-09-16T08:11:03.194Z,42368
2017-09-16T08:12:07.561Z,41600
2017-09-16T08:13:10.278Z,46048
2017-09-16T08:14:13.241Z,48832
2017-09-16T08:15:17.053Z,47328
2017-09-16T08:16:21.066Z,48832
2017-09-16T08:17:23.250Z,47392
2017-09-16T08:18:25.073Z,44736
2017-09-16T08:19:26.921Z,43968
2017-09-16T08:20:29.036Z,44832
2017-09-16T08:21:31.782Z,44992
2017-09-16T08:22:34.715Z,24320
2017-09-16T08:23:36.798Z,46432
2017-09-16T08:24:39.307Z,11076
2017-09-16T08:25:42.021Z,42976
2017-09-16T08:26:43.887Z,48896
2017-09-16T08:27:45.946Z,50976
2017-09-16T08:28:47.809Z,57280
2017-09-16T08:29:49.780Z,56480
2017-09-16T08:30:51.539Z,56640
2017-09-16T08:31:53.585Z,57792
2017-09-16T08:32:55.339Z,60544
2017-09-16T08:33:57.012Z,59296
2017-09-16T08:34:59.030Z,57984
2017-09-16T08:36:01.626Z,59456
2017-09-16T08:37:03.917Z,61088
2017-09-16T08:38:06.573Z,53056
2017-09-16T08:39:08.542Z,58432
2017-09-16T08:40:10.368Z,49120
2017-09-16T08:41:12.176Z,45760
2017-09-16T08:42:13.835Z,37952
2017-09-16T08:43:15.820Z,43456
2017-09-16T08:44:17.974Z,54816
2017-09-16T08:45:20.100Z,64384
2017-09-16T08:46:22.199Z,65376
2017-09-16T08:47:25.024Z,67232
2017-09-16T08:48:27.766Z,66560
2017-09-16T08:49:29.972Z,63872
2017-09-16T08:50:32.261Z,59296
2017-09-16T08:51:34.954Z,53312
2017-09-16T08:52:39.394Z,50688
2017-09-16T08:53:41.386Z,55936
2017-09-16T08:54:43.190Z,60992
2017-09-16T08:55:44.985Z,62016
2017-09-16T08:56:47.492Z,61120
2017-09-16T08:57:49.615Z,60896
2017-09-16T08:58:52.025Z,60704
2017-09-16T08:59:53.834Z,64896
2017-09-16T09:00:55.722Z,66304
2017-09-16T09:01:57.399Z,68416
2017-09-16T09:03:00.313Z,66528
2017-09-16T09:04:02.871Z,47968
2017-09-16T09:05:04.668Z,23616
2017-09-16T09:06:06.353Z,16896
2017-09-16T09:07:08.138Z,32576
2017-09-16T09:08:09.896Z,17952
2017-09-16T09:09:11.763Z,14712
2017-09-16T09:10:13.514Z,26336
2017-09-16T09:11:15.873Z,39552
2017-09-16T09:12:19.126Z,6892
2017-09-16T09:13:20.993Z,57152
2017-09-16T09:14:22.937Z,9764
2017-09-16T09:15:24.683Z,62592
2017-09-16T09:16:26.856Z,61856
2017-09-16T09:17:28.798Z,60640
2017-09-16T09:18:31.347Z,61152
2017-09-16T09:19:33.662Z,59200
2017-09-16T09:20:36.095Z,59456
2017-09-16T09:21:37.831Z,31904
2017-09-16T09:22:39.740Z,14444
2017-09-16T09:23:41.793Z,13180
2017-09-16T09:24:43.584Z,19008
2017-09-16T09:25:45.974Z,11976
2017-09-16T09:26:48.559Z,10060
2017-09-16T09:27:50.870Z,9848
2017-09-16T09:28:53.227Z,9860
2017-09-16T09:29:55.558Z,6648
2017-09-16T09:30:57.858Z,8176
2017-09-16T09:31:59.596Z,8136
2017-09-16T09:33:01.383Z,6504
2017-09-16T09:34:03.915Z,4212
2017-09-16T09:35:05.841Z,3448
2017-09-16T09:36:07.686Z,6524
2017-09-16T09:37:10.147Z,6360
2017-09-16T09:38:12.522Z,6716
2017-09-16T09:39:20.980Z,7240
2017-09-16T09:40:23.840Z,5856
2017-09-16T09:41:25.785Z,8268
2017-09-16T09:42:28.650Z,16064
2017-09-16T09:43:32.010Z,11380
2017-09-16T09:44:34.788Z,18784
2017-09-16T09:45:37.828Z,55968
2017-09-16T09:46:40.533Z,65824
2017-09-16T09:47:42.786Z,47136
2017-09-16T09:48:44.632Z,3892
2017-09-16T09:49:46.289Z,4316
2017-09-16T09:50:48.120Z,4736
2017-09-16T09:51:49.841Z,32064
2017-09-16T09:52:52.356Z,27072
2017-09-16T09:53:54.582Z,8344
2017-09-16T09:54:56.898Z,6604
2017-09-16T09:55:58.676Z,6800
2017-09-16T09:57:00.447Z,6668
2017-09-16T09:58:02.151Z,7196
2017-09-16T09:59:04.173Z,16832
2017-09-16T10:00:05.834Z,10280
2017-09-16T10:01:08.405Z,7336
2017-09-16T10:02:10.898Z,7060
2017-09-16T10:03:13.305Z,7180
2017-09-16T10:04:16.439Z,9648
2017-09-16T10:05:20.228Z,8980
2017-09-16T10:06:22.678Z,9880
2017-09-16T10:07:24.833Z,24256
2017-09-16T10:08:27.149Z,26624
2017-09-16T10:09:29.219Z,78016
2017-09-16T10:10:31.961Z,58432
2017-09-16T10:11:34.463Z,32352
2017-09-16T10:12:36.693Z,25440
2017-09-16T10:13:39.086Z,5724
2017-09-16T10:14:41.466Z,5048
2017-09-16T10:15:43.561Z,4876
2017-09-16T10:16:46.494Z,5332
2017-09-16T10:17:50.319Z,8048
2017-09-16T10:18:51.979Z,7852
2017-09-16T10:19:54.076Z,8348
2017-09-16T10:20:57.717Z,10308
2017-09-16T10:21:59.918Z,11660
2017-09-16T10:23:02.376Z,9300
2017-09-16T10:24:05.150Z,9912
2017-09-16T10:25:07.647Z,8764
2017-09-16T10:26:10.366Z,7960
2017-09-16T10:27:12.350Z,7976
2017-09-16T10:28:16.083Z,8644
2017-09-16T10:29:19.040Z,9176
2017-09-16T10:30:22.451Z,10228
2017-09-16T10:31:26.914Z,10916
2017-09-16T10:32:29.722Z,9364
2017-09-16T10:33:34.663Z,39808
2017-09-16T10:34:37.443Z,5412
2017-09-16T10:35:40.351Z,21728
2017-09-16T10:36:42.787Z,47328
2017-09-16T10:37:45.263Z,65888
2017-09-16T10:38:47.921Z,64192
2017-09-16T10:39:50.319Z,20096
2017-09-16T10:40:52.609Z,59552
2017-09-16T10:41:55.714Z,43616
2017-09-16T10:42:58.153Z,14020
2017-09-16T10:44:00.323Z,17184
2017-09-16T10:45:03.094Z,12788
2017-09-16T10:46:04.815Z,10272
2017-09-16T10:47:07.394Z,37888
2017-09-16T10:48:10.407Z,75328
2017-09-16T10:49:15.256Z,8300
2017-09-16T10:50:18.065Z,11300
2017-09-16T10:51:21.331Z,42272
2017-09-16T10:52:23.413Z,15176
2017-09-16T10:53:25.643Z,19648
2017-09-16T10:54:28.052Z,7736
2017-09-16T10:55:29.823Z,7184
2017-09-16T10:56:31.647Z,6548
2017-09-16T10:57:34.159Z,14148
2017-09-16T10:58:36.587Z,12588
2017-09-16T10:59:38.630Z,5448
2017-09-16T11:00:40.864Z,3872
2017-09-16T11:01:44.288Z,3396
2017-09-16T11:02:46.200Z,3652
2017-09-16T11:03:48.104Z,4176
2017-09-16T11:04:50.802Z,5316
2017-09-16T11:05:54.881Z,8476
2017-09-16T11:06:58.890Z,26560
2017-09-16T11:08:00.706Z,68640
2017-09-16T11:09:02.426Z,73088
2017-09-16T11:10:04.247Z,6756
2017-09-16T11:11:06.168Z,8020
2017-09-16T11:12:08.485Z,5412
2017-09-16T11:13:10.888Z,3724
2017-09-16T11:14:12.829Z,3448
2017-09-16T11:15:15.103Z,3804
2017-09-16T11:16:18.949Z,4728
2017-09-16T11:17:21.060Z,7580
2017-09-16T11:18:23.284Z,8376
2017-09-16T11:19:25.545Z,31328
2017-09-16T11:20:28.736Z,35360
2017-09-16T11:22:42.412Z,6576
2017-09-16T11:23:44.047Z,6928
2017-09-16T11:24:45.685Z,7756
2017-09-16T11:25:47.363Z,9544
2017-09-16T11:26:49.001Z,73120
2017-09-16T11:27:50.673Z,47168
2017-09-16T11:28:52.277Z,53568
2017-09-16T11:29:53.926Z,9468
2017-09-16T11:30:55.578Z,21504
2017-09-16T11:31:57.233Z,93760
2017-09-16T11:32:58.956Z,92192
2017-09-16T11:34:00.610Z,14024
2017-09-16T11:35:02.288Z,88032
2017-09-16T11:36:04.037Z,36832
2017-09-16T11:37:05.789Z,86944
2017-09-16T11:38:07.538Z,86368
2017-09-16T11:39:09.189Z,16800
2017-09-16T11:40:10.977Z,12332
2017-09-16T11:41:12.671Z,8148
2017-09-16T11:42:14.543Z,7892
2017-09-16T11:43:17.473Z,8692
2017-09-16T11:44:19.628Z,10100
2017-09-16T11:45:21.718Z,41120
2017-09-16T11:46:23.753Z,62464
2017-09-16T11:47:26.062Z,85088
2017-09-16T11:48:27.983Z,82752
2017-09-16T11:49:29.898Z,79072
2017-09-16T11:50:31.722Z,78880
2017-09-16T11:51:33.490Z,84128
2017-09-16T11:52:35.679Z,85088
2017-09-16T11:53:37.826Z,78752
2017-09-16T11:54:39.607Z,79872
2017-09-16T11:55:41.446Z,79360
2017-09-16T11:56:43.207Z,82912
2017-09-16T11:57:44.989Z,84128
2017-09-16T11:58:46.806Z,10572
2017-09-16T11:59:48.607Z,87296
2017-09-16T12:00:50.412Z,38208
2017-09-16T12:01:52.572Z,45280
2017-09-16T12:02:54.609Z,22336
2017-09-16T12:03:56.880Z,52832
2017-09-16T12:04:59.032Z,22976
2017-09-16T12:06:01.054Z,20064
2017-09-16T12:07:03.861Z,11072
2017-09-16T12:08:06.542Z,11912
2017-09-16T12:09:09.029Z,16128
2017-09-16T12:10:11.589Z,38272
2017-09-16T12:11:13.601Z,74528
2017-09-16T12:12:15.879Z,63040
2017-09-16T12:13:18.222Z,86720
2017-09-16T12:14:20.789Z,65248
2017-09-16T12:15:23.557Z,92704
2017-09-16T12:16:25.715Z,18624
2017-09-16T12:17:28.297Z,76416
2017-09-16T12:18:30.470Z,88736
2017-09-16T12:19:32.482Z,68576
2017-09-16T12:20:34.582Z,57024
2017-09-16T12:21:37.007Z,65728
2017-09-16T12:22:38.793Z,87008
2017-09-16T12:23:40.669Z,15540
2017-09-16T12:24:42.498Z,11360
2017-09-16T12:25:44.614Z,11404
2017-09-16T12:26:46.443Z,12852
2017-09-16T12:27:48.611Z,25504
2017-09-16T12:28:50.510Z,36128
2017-09-16T12:29:52.728Z,90336
2017-09-16T12:30:54.773Z,55936
2017-09-16T12:31:56.598Z,64320
2017-09-16T12:32:58.991Z,10604
2017-09-16T12:34:01.364Z,9148
2017-09-16T12:35:03.574Z,8576
2017-09-16T12:36:05.877Z,8208
2017-09-16T12:37:07.891Z,7852
2017-09-16T12:38:10.065Z,7748
2017-09-16T12:39:12.881Z,10044
2017-09-16T12:40:15.366Z,6940
2017-09-16T12:41:17.139Z,6788
2017-09-16T12:42:19.442Z,6536
2017-09-16T12:43:21.766Z,5936
2017-09-16T12:44:24.138Z,5672
2017-09-16T12:45:26.068Z,5824
2017-09-16T12:46:27.820Z,5896
2017-09-16T12:47:30.176Z,6284
2017-09-16T12:48:32.110Z,7168
2017-09-16T12:49:34.352Z,11888
2017-09-16T12:50:36.211Z,80288
2017-09-16T12:51:38.055Z,87936
2017-09-16T12:52:40.083Z,87680
2017-09-16T12:53:42.148Z,83616
2017-09-16T12:54:43.922Z,76960
2017-09-16T12:55:46.159Z,73568
2017-09-16T12:56:48.274Z,74688
2017-09-16T12:57:50.394Z,74720
2017-09-16T12:58:52.464Z,74496
2017-09-16T12:59:54.680Z,77344
2017-09-16T13:00:56.449Z,76352
2017-09-16T13:01:58.252Z,72224
2017-09-16T13:03:00.075Z,70208
2017-09-16T13:04:01.916Z,69440
2017-09-16T13:05:03.756Z,70112
2017-09-16T13:06:05.589Z,68832
2017-09-16T13:07:07.528Z,69344
2017-09-16T13:08:09.302Z,67616
2017-09-16T13:09:11.038Z,64928
2017-09-16T13:10:12.752Z,65408
2017-09-16T13:11:14.583Z,64224
2017-09-16T13:12:16.381Z,62112
2017-09-16T13:13:18.342Z,63520
2017-09-16T13:14:20.098Z,64512
2017-09-16T13:15:21.855Z,61952
2017-09-16T13:16:24.545Z,57472
2017-09-16T13:17:26.448Z,60224
2017-09-16T13:18:28.373Z,64768
2017-09-16T13:19:30.213Z,63520
2017-09-16T13:20:31.990Z,59488
2017-09-16T13:21:34.145Z,56736
2017-09-16T13:22:36.697Z,54400
2017-09-16T13:23:38.691Z,57376
2017-09-16T13:24:40.478Z,61664
2017-09-16T13:25:42.361Z,63008
2017-09-16T13:26:44.181Z,61664
2017-09-16T13:27:45.951Z,5676
2017-09-16T13:28:47.943Z,7744
2017-09-16T13:29:49.767Z,24224
2017-09-16T13:30:51.836Z,58432
2017-09-16T13:31:53.627Z,59776
2017-09-16T13:32:55.641Z,60224
2017-09-16T13:33:57.704Z,62592
2017-09-16T13:34:59.522Z,63712
2017-09-16T13:36:01.240Z,58912
2017-09-16T13:37:03.029Z,49408
2017-09-16T13:38:05.160Z,51840
2017-09-16T13:39:07.436Z,22656
2017-09-16T13:40:09.351Z,5952
2017-09-16T13:41:11.101Z,5344
2017-09-16T13:42:12.938Z,4504
2017-09-16T13:43:14.731Z,4448
2017-09-16T13:44:16.973Z,4340
2017-09-16T13:45:18.782Z,4688
2017-09-16T13:46:20.578Z,4800
2017-09-16T13:47:22.355Z,10704
2017-09-16T13:48:24.181Z,8240
2017-09-16T13:49:25.981Z,6400
2017-09-16T13:50:27.824Z,12080
2017-09-16T13:51:29.970Z,11700
2017-09-16T13:52:32.580Z,11748
2017-09-16T13:53:34.882Z,6508
2017-09-16T13:54:36.981Z,11696
2017-09-16T13:55:38.809Z,11800
2017-09-16T13:56:40.592Z,6940
2017-09-16T13:57:42.584Z,12544
2017-09-16T13:58:44.305Z,12300
2017-09-16T13:59:46.084Z,7220
2017-09-16T14:00:48.618Z,6732
2017-09-16T14:01:50.533Z,6292
2017-09-16T14:02:52.328Z,10972
2017-09-16T14:03:53.979Z,10652
2017-09-16T14:04:55.705Z,10292
2017-09-16T14:05:57.345Z,5824
2017-09-16T14:06:58.994Z,4948
2017-09-16T14:08:00.673Z,8888
2017-09-16T14:09:02.345Z,8964
2017-09-16T14:10:04.040Z,8992
2017-09-16T14:11:05.679Z,5344
2017-09-16T14:12:07.379Z,4424
2017-09-16T14:13:09.122Z,4404
2017-09-16T14:14:10.838Z,4592
2017-09-16T14:15:12.546Z,4620
2017-09-16T14:16:14.373Z,4212
2017-09-16T14:17:16.111Z,3564
2017-09-16T14:18:17.929Z,3272
2017-09-16T14:19:19.684Z,3112